Time;durP1;ratioP1;P1;durP2;ratioP2;P2;SDS_P1;SDS_P2;PMS_P1;PMS_P2;Temp;Humidity;BMP_temperature;BMP_pressure;BME280_temperature;BME280_humidity;BME280_pressure;Samples;Min_cycle;Max_cycle;Signal;HPM_P1;HPM_P2
2021/08/27 00:00:29;;;;;;;8.68;4.10;;;;;;;15.77;94.48;98459.64;1870792;76;22183;-58
2021/08/27 00:03:05;;;;;;;6.50;4.45;;;;;;;15.74;94.31;98464.02;1889915;76;22233;-60
2021/08/27 00:05:40;;;;;;;6.12;4.53;;;;;;;15.66;94.37;98470.63;1870675;76;22176;-61
2021/08/27 00:08:15;;;;;;;8.18;5.60;;;;;;;15.64;94.47;98476.30;1870687;76;22625;-61
2021/08/27 00:11:11;;;;;;;11.90;7.17;;;;;;;15.64;94.54;98487.55;1870623;76;22595;-62
2021/08/27 00:13:46;;;;;;;10.18;6.92;;;;;;;15.68;94.66;98484.92;1870663;76;22147;-58
2021/08/27 00:16:39;;;;;;;9.70;7.97;;;;;;;15.67;94.58;98489.69;1889899;76;22535;-59
2021/08/27 00:19:14;;;;;;;12.55;11.25;;;;;;;15.60;94.61;98485.05;1870652;76;22627;-60
2021/08/27 00:22:08;;;;;;;15.25;11.60;;;;;;;15.57;94.83;98490.28;1889851;76;22140;-60
2021/08/27 00:24:43;;;;;;;12.00;9.13;;;;;;;15.56;94.89;98493.33;1870650;76;22136;-61
2021/08/27 00:27:18;;;;;;;9.98;6.33;;;;;;;15.56;94.98;98501.58;1870668;76;22137;-59
2021/08/27 00:29:52;;;;;;;9.08;5.87;;;;;;;15.52;95.13;98499.48;1870683;76;22189;-59
2021/08/27 00:33:05;;;;;;;6.62;4.72;;;;;;;15.54;95.31;98498.14;1872554;75;22218;-64
2021/08/27 00:35:40;;;;;;;7.75;4.00;;;;;;;15.52;95.41;98496.89;1889962;76;22139;-61
2021/08/27 00:38:15;;;;;;;7.58;4.00;;;;;;;15.51;95.50;98494.30;1870704;76;22137;-60
2021/08/27 00:40:49;;;;;;;5.83;3.52;;;;;;;15.47;95.56;98490.02;1870715;76;22136;-59
2021/08/27 00:43:24;;;;;;;6.15;3.10;;;;;;;15.45;95.59;98497.02;1870693;76;22165;-59
2021/08/27 00:45:59;;;;;;;6.62;3.87;;;;;;;15.41;95.65;98490.53;1870677;76;22132;-60
2021/08/27 00:48:54;;;;;;;6.08;3.47;;;;;;;15.40;95.81;98484.94;1870443;76;22546;-61
2021/08/27 00:51:29;;;;;;;6.40;3.55;;;;;;;15.39;95.88;98488.84;1889936;76;22136;-60
2021/08/27 00:54:06;;;;;;;7.10;3.85;;;;;;;15.39;95.88;98494.93;1870673;76;22560;-64
2021/08/27 00:57:07;;;;;;;5.33;3.10;;;;;;;15.41;95.90;98489.23;1889891;76;22600;-58
2021/08/27 00:59:42;;;;;;;6.55;3.20;;;;;;;15.38;95.86;98484.09;1870775;76;22547;-62
2021/08/27 01:02:17;;;;;;;8.63;3.72;;;;;;;15.37;96.00;98492.79;1870658;76;22105;-57
2021/08/27 01:05:12;;;;;;;4.87;3.55;;;;;;;15.39;96.02;98492.33;1870606;76;22160;-58
2021/08/27 01:08:19;;;;;;;6.83;3.08;;;;;;;15.40;95.98;98488.83;1889936;76;22164;-59
2021/08/27 01:11:05;;;;;;;7.25;4.60;;;;;;;15.41;96.00;98490.53;1889938;76;22571;-62
2021/08/27 01:13:47;;;;;;;5.78;3.90;;;;;;;15.38;95.96;98501.00;1889832;76;22167;-57
2021/08/27 01:16:26;;;;;;;5.72;3.77;;;;;;;15.37;96.01;98500.59;1870678;76;22599;-55
2021/08/27 01:19:28;;;;;;;7.08;3.50;;;;;;;15.37;96.07;98499.73;1870610;76;22141;-55
2021/08/27 01:22:53;;;;;;;9.55;3.87;;;;;;;15.36;96.06;98487.16;1870682;76;22184;-54
2021/08/27 01:25:31;;;;;;;9.83;4.42;;;;;;;15.31;96.13;98480.31;1870792;76;22105;-58
2021/08/27 01:28:27;;;;;;;6.05;3.90;;;;;;;15.24;96.20;98479.58;1870714;76;22141;-60
2021/08/27 01:31:29;;;;;;;5.67;4.08;;;;;;;15.16;96.27;98480.11;1870717;76;22109;-56
2021/08/27 01:34:35;;;;;;;8.10;5.05;;;;;;;15.09;96.60;98477.21;1889985;76;22123;-59
2021/08/27 01:37:18;;;;;;;7.65;5.30;;;;;;;15.05;96.91;98482.02;1889969;76;22530;-58
2021/08/27 01:40:12;;;;;;;8.53;5.03;;;;;;;14.96;97.13;98484.33;1870684;76;22105;-56
2021/08/27 01:42:47;;;;;;;8.25;5.65;;;;;;;14.93;97.35;98486.53;1854792;76;28348;-55
2021/08/27 01:45:23;;;;;;;7.17;5.55;;;;;;;14.96;97.52;98479.98;1870746;76;22520;-56
2021/08/27 01:48:00;;;;;;;7.95;5.50;;;;;;;15.03;97.12;98491.13;1854779;76;27899;-54
2021/08/27 01:50:37;;;;;;;7.28;4.75;;;;;;;15.09;97.66;98494.11;1889957;76;22116;-56
2021/08/27 01:53:40;;;;;;;7.87;5.58;;;;;;;15.11;97.50;98491.02;1869717;76;22150;-60
2021/08/27 01:56:16;;;;;;;6.25;5.15;;;;;;;15.07;97.35;98490.22;1870664;76;22190;-57
2021/08/27 01:58:52;;;;;;;7.85;5.45;;;;;;;15.03;97.41;98490.28;1870669;76;20204;-56
2021/08/27 02:01:47;;;;;;;10.00;6.20;;;;;;;14.98;97.35;98486.02;1870661;76;22186;-56
2021/08/27 02:04:23;;;;;;;8.20;6.22;;;;;;;14.94;97.42;98488.23;1854764;76;28328;-61
2021/08/27 02:07:18;;;;;;;7.78;5.45;;;;;;;14.95;97.41;98476.95;1870592;76;22120;-60
2021/08/27 02:09:57;;;;;;;8.28;6.17;;;;;;;14.87;97.47;98474.91;1870676;76;22140;-55
2021/08/27 02:12:32;;;;;;;8.33;6.58;;;;;;;14.82;97.64;98471.52;1870671;76;22141;-64
2021/08/27 02:15:26;;;;;;;9.10;6.45;;;;;;;14.75;97.88;98474.63;1870619;76;22137;-61
2021/08/27 02:18:02;;;;;;;8.28;6.65;;;;;;;14.70;97.99;98474.28;1854768;76;28332;-57
2021/08/27 02:20:37;;;;;;;8.95;7.20;;;;;;;14.71;98.19;98481.21;1870803;76;22144;-58
2021/08/27 02:23:33;;;;;;;10.32;6.80;;;;;;;14.72;98.39;98490.70;1870599;76;22575;-59
2021/08/27 02:26:12;;;;;;;12.95;6.58;;;;;;;14.70;98.45;98495.05;1870637;76;22543;-64
2021/08/27 02:29:07;;;;;;;10.70;6.70;;;;;;;14.71;98.52;98504.59;1889948;76;22124;-60
2021/08/27 02:32:03;;;;;;;9.68;6.70;;;;;;;14.66;98.54;98502.05;1889903;76;22834;-56
2021/08/27 02:35:02;;;;;;;8.10;5.80;;;;;;;14.64;98.62;98502.49;1889874;76;22116;-53
2021/08/27 02:37:40;;;;;;;10.53;6.92;;;;;;;14.58;98.64;98503.00;1870665;76;22554;-65
2021/08/27 02:40:34;;;;;;;13.60;7.50;;;;;;;14.51;98.99;98510.84;1870529;76;22588;-58
2021/08/27 02:43:09;;;;;;;10.25;7.55;;;;;;;14.47;99.08;98515.64;1870700;76;22137;-59
2021/08/27 02:45:44;;;;;;;8.68;5.70;;;;;;;14.46;99.25;98520.42;1870671;76;22105;-57
2021/08/27 02:48:18;;;;;;;9.33;6.65;;;;;;;14.46;99.31;98519.12;1889925;76;22136;-55
2021/08/27 02:51:13;;;;;;;12.03;7.45;;;;;;;14.47;99.39;98523.88;1870664;76;22527;-54
2021/08/27 02:53:57;;;;;;;9.88;6.70;;;;;;;14.48;99.55;98522.58;1870659;76;22556;-57
2021/08/27 02:56:39;;;;;;;11.20;6.50;;;;;;;14.52;99.54;98530.73;1870782;76;22113;-57
2021/08/27 02:59:36;;;;;;;10.45;7.05;;;;;;;14.51;99.37;98535.52;1889925;76;22135;-59
2021/08/27 03:02:31;;;;;;;10.93;6.80;;;;;;;14.48;99.28;98547.24;1870607;76;22121;-59
2021/08/27 03:05:16;;;;;;;9.93;7.40;;;;;;;14.52;99.50;98553.24;1854773;76;27951;-61
2021/08/27 03:08:10;;;;;;;11.75;6.83;;;;;;;14.67;99.30;98554.84;1889949;76;22116;-63
2021/08/27 03:10:59;;;;;;;9.65;6.03;;;;;;;14.71;99.10;98552.19;1870632;76;22253;-58
2021/08/27 03:14:15;;;;;;;8.15;6.12;;;;;;;14.73;98.61;98550.44;1889928;76;22519;-56
2021/08/27 03:16:52;;;;;;;7.80;6.00;;;;;;;14.67;98.50;98552.23;1870757;76;22140;-57
2021/08/27 03:19:38;;;;;;;7.17;5.28;;;;;;;14.63;98.14;98560.94;1870653;76;22137;-61
2021/08/27 03:22:21;;;;;;;7.42;5.80;;;;;;;14.54;97.97;98561.47;1854907;76;28326;-61
2021/08/27 03:25:17;;;;;;;6.87;4.90;;;;;;;14.57;98.01;98558.42;1870646;76;22547;-58
2021/08/27 03:28:22;;;;;;;7.65;5.08;;;;;;;14.60;97.93;98570.92;1854669;76;27905;-61
2021/08/27 03:31:03;;;;;;;6.15;4.53;;;;;;;14.69;97.72;98579.06;1869819;76;22149;-57
2021/08/27 03:34:01;;;;;;;8.10;5.62;;;;;;;14.70;97.65;98582.92;1854746;76;27895;-59
2021/08/27 03:36:57;;;;;;;10.00;6.20;;;;;;;14.84;97.41;98581.47;1854746;76;28345;-57
2021/08/27 03:39:33;;;;;;;9.20;5.40;;;;;;;14.93;97.11;98578.77;1870787;76;22144;-54
2021/08/27 03:42:28;;;;;;;7.30;5.40;;;;;;;14.94;96.64;98579.62;1873817;76;27957;-56
2021/08/27 03:45:05;;;;;;;8.45;5.17;;;;;;;15.03;96.30;98574.73;1854804;76;27885;-59
2021/08/27 03:47:43;;;;;;;7.35;4.37;;;;;;;15.09;95.72;98572.92;1889974;76;22191;-62
2021/08/27 03:50:25;;;;;;;7.87;4.12;;;;;;;15.07;95.20;98579.02;1889940;76;22582;-58
2021/08/27 03:53:01;;;;;;;7.33;4.92;;;;;;;14.96;94.82;98569.63;1870598;76;22142;-57
2021/08/27 03:55:55;;;;;;;6.05;4.03;;;;;;;14.86;94.81;98581.02;1870628;76;22141;-54
2021/08/27 03:58:30;;;;;;;5.50;4.10;;;;;;;14.83;94.80;98584.08;1854760;76;27913;-57
2021/08/27 04:01:05;;;;;;;6.35;4.15;;;;;;;14.87;94.74;98585.33;1870648;76;22117;-64
2021/08/27 04:03:41;;;;;;;8.63;4.70;;;;;;;14.90;94.61;98576.19;1870138;76;22164;-57
2021/08/27 04:06:42;;;;;;;8.18;5.10;;;;;;;14.89;94.41;98580.97;1869648;76;22169;-57
2021/08/27 04:09:16;;;;;;;9.55;6.33;;;;;;;14.88;94.42;98575.37;1870584;76;22116;-55
2021/08/27 04:11:51;;;;;;;8.50;5.30;;;;;;;14.91;94.49;98572.73;1826520;76;22270;-63
2021/08/27 04:14:26;;;;;;;7.75;5.22;;;;;;;14.94;94.39;98569.23;1865471;76;22236;-56
2021/08/27 04:17:21;;;;;;;7.05;4.65;;;;;;;14.92;94.22;98562.74;1870525;76;22120;-56
2021/08/27 04:20:21;;;;;;;9.10;4.12;;;;;;;14.87;94.46;98562.39;1851270;76;22275;-61
2021/08/27 04:22:56;;;;;;;6.72;4.72;;;;;;;14.90;94.52;98558.45;1879982;76;22188;-57
2021/08/27 04:25:30;;;;;;;6.72;4.40;;;;;;;14.87;94.13;98563.23;1889406;76;22175;-57
2021/08/27 04:28:06;;;;;;;6.92;4.30;;;;;;;14.82;94.20;98577.17;1870650;76;22562;-64
2021/08/27 04:31:00;;;;;;;6.33;3.60;;;;;;;14.77;94.20;98573.33;1870579;76;22139;-61
2021/08/27 04:33:54;;;;;;;6.35;4.05;;;;;;;14.64;94.12;98574.36;1868879;76;22168;-65
2021/08/27 04:36:29;;;;;;;6.05;4.25;;;;;;;14.64;94.46;98575.66;1856357;76;22644;-59
2021/08/27 04:39:10;;;;;;;5.75;3.92;;;;;;;14.74;94.51;98571.62;1850831;76;22226;-61
2021/08/27 04:42:05;;;;;;;6.40;4.22;;;;;;;14.86;94.31;98569.33;1850751;76;22164;-60
2021/08/27 04:44:40;;;;;;;6.22;4.33;;;;;;;14.85;93.97;98574.08;1851749;76;20219;-59
2021/08/27 04:47:15;;;;;;;6.50;3.95;;;;;;;14.82;94.16;98583.22;1855303;76;22184;-56
2021/08/27 04:49:49;;;;;;;9.30;4.28;;;;;;;14.83;93.99;98587.97;1870636;76;22563;-59
2021/08/27 04:52:44;;;;;;;5.10;3.67;;;;;;;14.89;94.09;98585.31;1870595;76;22144;-61
2021/08/27 04:55:19;;;;;;;8.45;4.00;;;;;;;15.06;94.11;98578.58;1889930;76;22579;-58
2021/08/27 04:57:54;;;;;;;8.10;4.40;;;;;;;15.30;93.76;98584.75;1874598;76;22148;-66
2021/08/27 05:00:47;;;;;;;5.58;3.92;;;;;;;15.48;92.71;98584.93;1870528;76;22124;-58
2021/08/27 05:03:22;;;;;;;7.55;4.47;;;;;;;15.68;92.76;98583.77;1870575;76;22555;-64
2021/08/27 05:06:22;;;;;;;6.25;3.87;;;;;;;16.11;91.37;98586.55;1869656;76;22571;-59
2021/08/27 05:08:57;;;;;;;11.65;8.75;;;;;;;16.48;90.69;98578.05;1870603;76;22164;-63
2021/08/27 05:11:32;;;;;;;5.95;4.00;;;;;;;17.16;88.49;98575.42;1889886;76;22143;-58
2021/08/27 05:14:28;;;;;;;16.35;11.35;;;;;;;18.46;82.29;98574.00;1890003;76;22589;-67
2021/08/27 05:17:21;;;;;;;6.55;4.35;;;;;;;18.57;81.85;98569.33;1870655;76;22167;-68
2021/08/27 05:19:56;;;;;;;5.58;3.70;;;;;;;19.17;79.94;98575.48;1870654;76;22140;-69
2021/08/27 05:22:32;;;;;;;5.28;3.47;;;;;;;19.64;77.19;98579.26;1870575;76;22562;-65
2021/08/27 05:25:10;;;;;;;5.58;3.75;;;;;;;20.06;74.82;98580.08;1889288;76;22234;-71
2021/08/27 05:28:24;;;;;;;13.28;8.63;;;;;;;20.85;71.30;98591.78;1881019;75;22228;-64
2021/08/27 05:31:00;;;;;;;7.17;4.83;;;;;;;20.78;69.38;98593.77;1870236;76;22210;-66
2021/08/27 05:34:00;;;;;;;10.25;4.78;;;;;;;21.02;69.52;98591.55;1869798;76;22146;-69
2021/08/27 05:36:35;;;;;;;5.67;3.95;;;;;;;21.48;67.62;98597.31;1854745;76;27870;-60
2021/08/27 05:39:29;;;;;;;8.85;5.78;;;;;;;22.67;64.74;98600.23;1889959;76;22120;-68
2021/08/27 05:42:05;;;;;;;6.17;4.10;;;;;;;23.51;61.56;98604.77;1890008;76;22147;-68
2021/08/27 05:44:40;;;;;;;8.78;3.30;;;;;;;24.31;59.29;98600.86;1870716;76;22559;-64
2021/08/27 05:47:41;;;;;;;4.72;3.00;;;;;;;25.31;55.55;98601.77;1869858;76;22173;-63
2021/08/27 05:50:17;;;;;;;5.22;3.22;;;;;;;25.53;54.42;98600.11;1870729;76;20351;-70
2021/08/27 05:53:11;;;;;;;4.83;2.83;;;;;;;26.63;51.09;98608.75;1889953;76;22611;-64
2021/08/27 05:55:46;;;;;;;4.45;2.98;;;;;;;27.90;48.98;98620.30;1870668;76;22564;-67
2021/08/27 05:58:21;;;;;;;4.80;3.25;;;;;;;29.16;46.16;98623.73;1890056;76;22135;-65
2021/08/27 06:01:15;;;;;;;3.80;2.50;;;;;;;30.17;42.42;98626.16;1890040;76;22213;-64
2021/08/27 06:03:50;;;;;;;4.30;2.62;;;;;;;30.62;41.45;98635.64;1890058;76;22077;-69
2021/08/27 06:06:27;;;;;;;5.30;2.90;;;;;;;31.26;39.67;98635.95;1854918;76;27883;-66
2021/08/27 06:09:05;;;;;;;4.75;2.77;;;;;;;31.65;39.11;98640.91;1850960;77;22104;-62
2021/08/27 06:12:05;;;;;;;4.33;2.50;;;;;;;32.65;36.97;98646.39;1890175;76;22247;-74
2021/08/27 06:14:41;;;;;;;3.87;2.52;;;;;;;33.01;36.49;98656.22;1870499;76;22043;-70
2021/08/27 06:17:36;;;;;;;5.08;2.72;;;;;;;33.51;35.37;98658.16;1870848;76;22083;-69
2021/08/27 06:20:32;;;;;;;3.95;2.60;;;;;;;33.84;34.62;98662.81;1870614;76;22521;-68
2021/08/27 06:23:07;;;;;;;4.40;2.42;;;;;;;33.93;34.30;98658.82;1890077;76;22041;-71
2021/08/27 06:26:01;;;;;;;3.58;2.50;;;;;;;34.10;33.87;98664.52;1870682;76;22082;-63
2021/08/27 06:29:03;;;;;;;5.42;2.58;;;;;;;34.48;32.73;98669.52;1869841;76;22660;-68
2021/08/27 06:31:37;;;;;;;6.28;2.42;;;;;;;34.88;32.52;98677.86;1890229;76;22619;-64
2021/08/27 06:34:31;;;;;;;6.00;2.42;;;;;;;35.34;31.85;98680.21;1870746;76;22489;-72
2021/08/27 06:37:06;;;;;;;4.08;2.30;;;;;;;35.65;31.05;98683.50;1870880;76;22066;-71
2021/08/27 06:40:00;;;;;;;3.40;2.15;;;;;;;35.69;30.93;98684.03;1870796;76;22133;-68
2021/08/27 06:42:35;;;;;;;3.08;2.10;;;;;;;35.39;30.85;98678.80;1870782;76;22552;-66
2021/08/27 06:45:28;;;;;;;3.47;2.05;;;;;;;35.59;30.83;98678.71;1870690;76;22082;-71
2021/08/27 06:48:05;;;;;;;3.30;2.00;;;;;;;36.12;29.95;98686.55;1854841;76;27900;-76
2021/08/27 06:50:59;;;;;;;4.28;1.95;;;;;;;36.18;29.61;98690.82;1870659;76;22059;-65
2021/08/27 06:53:34;;;;;;;3.12;2.00;;;;;;;35.47;30.54;98686.11;1890087;76;22042;-75
2021/08/27 06:56:09;;;;;;;3.05;1.70;;;;;;;36.12;30.08;98690.58;1870770;76;22058;-68
2021/08/27 06:59:08;;;;;;;2.92;1.80;;;;;;;36.27;29.45;98686.36;1890051;76;22058;-67
2021/08/27 07:01:43;;;;;;;6.08;1.72;;;;;;;35.63;29.93;98687.66;1890204;76;22049;-67
2021/08/27 07:04:56;;;;;;;4.85;1.82;;;;;;;35.02;30.80;98688.14;1871445;75;22200;-67
2021/08/27 07:07:32;;;;;;;2.65;1.60;;;;;;;34.76;31.24;98690.11;1854808;76;28561;-68
2021/08/27 07:10:08;;;;;;;3.30;1.70;;;;;;;34.59;31.10;98681.45;1874048;76;27865;-73
2021/08/27 07:12:44;;;;;;;2.47;1.40;;;;;;;34.07;31.67;98687.57;1854852;76;28276;-63
2021/08/27 07:15:38;;;;;;;6.10;1.62;;;;;;;33.90;31.54;98691.23;1870690;76;22626;-67
2021/08/27 07:18:12;;;;;;;2.62;1.30;;;;;;;34.12;31.44;98692.02;1889990;76;22090;-69
2021/08/27 07:20:48;;;;;;;3.60;1.87;;;;;;;33.47;31.53;98696.36;1870587;76;22473;-72
2021/08/27 07:23:41;;;;;;;2.55;1.67;;;;;;;33.19;32.29;98691.74;1890019;76;22504;-65
2021/08/27 07:26:17;;;;;;;3.70;2.02;;;;;;;32.93;33.31;98700.66;1870637;76;22051;-62
2021/08/27 07:28:51;;;;;;;4.15;1.60;;;;;;;32.89;33.04;98700.55;1890029;76;22053;-67
2021/08/27 07:31:27;;;;;;;3.20;1.80;;;;;;;32.78;33.04;98701.47;1854869;76;27887;-75
2021/08/27 07:34:04;;;;;;;3.47;1.80;;;;;;;32.53;33.28;98698.19;1889994;76;22667;-61
2021/08/27 07:36:45;;;;;;;2.95;1.62;;;;;;;33.18;32.58;98691.36;1869901;76;22050;-62
2021/08/27 07:39:20;;;;;;;2.62;1.60;;;;;;;33.12;32.24;98703.94;1890012;76;22487;-68
2021/08/27 07:42:01;;;;;;;2.90;1.75;;;;;;;31.56;34.17;98705.20;1890000;76;22050;-64
2021/08/27 07:44:55;;;;;;;6.33;1.80;;;;;;;31.48;35.19;98707.63;1870665;76;22256;-72
2021/08/27 07:47:30;;;;;;;3.47;1.85;;;;;;;30.99;35.64;98702.09;1890002;76;22045;-69
2021/08/27 07:50:07;;;;;;;3.90;2.15;;;;;;;30.26;36.56;98700.05;1890001;76;22077;-77
2021/08/27 07:53:03;;;;;;;3.40;1.65;;;;;;;31.17;35.60;98704.69;1870569;76;22087;-67
2021/08/27 07:55:46;;;;;;;2.92;1.67;;;;;;;32.07;34.08;98713.99;1890172;76;22133;-64
2021/08/27 07:58:22;;;;;;;3.98;1.62;;;;;;;32.84;32.78;98713.80;1870666;76;22059;-62
2021/08/27 08:00:59;;;;;;;3.43;1.60;;;;;;;33.68;31.48;98711.53;1855109;76;27896;-64
2021/08/27 08:03:56;;;;;;;6.45;1.40;;;;;;;33.45;30.14;98716.20;1870580;76;22473;-60
2021/08/27 08:06:33;;;;;;;3.70;1.80;;;;;;;32.51;31.99;98713.48;1870529;76;22142;-69
2021/08/27 08:09:09;;;;;;;3.70;1.57;;;;;;;31.89;32.79;98714.97;1870789;76;20339;-60
2021/08/27 08:12:07;;;;;;;2.62;1.60;;;;;;;31.21;34.02;98717.28;1889972;76;22078;-75
2021/08/27 08:14:43;;;;;;;3.33;1.70;;;;;;;31.31;33.82;98719.59;1870686;76;22054;-70
2021/08/27 08:17:39;;;;;;;3.55;1.70;;;;;;;31.82;33.17;98715.59;1854993;76;27869;-74
2021/08/27 08:20:15;;;;;;;3.80;1.50;;;;;;;32.48;32.65;98719.09;1889935;76;22058;-72
2021/08/27 08:22:51;;;;;;;3.55;1.80;;;;;;;33.17;31.70;98717.77;1870790;76;22259;-66
2021/08/27 08:25:26;;;;;;;2.98;1.30;;;;;;;33.31;31.23;98721.44;1854958;76;28294;-76
2021/08/27 08:28:08;;;;;;;2.65;1.70;;;;;;;33.57;30.91;98721.85;1855082;76;28296;-68
2021/08/27 08:31:03;;;;;;;4.08;1.52;;;;;;;32.57;31.80;98721.50;1870628;76;22062;-70
2021/08/27 08:33:38;;;;;;;4.83;1.95;;;;;;;31.67;33.18;98729.19;1870700;76;22221;-63
2021/08/27 08:36:12;;;;;;;5.45;1.90;;;;;;;31.64;33.62;98720.59;1870793;76;22129;-74
2021/08/27 08:39:07;;;;;;;6.25;1.92;;;;;;;31.48;34.04;98716.97;1889894;76;22489;-71
2021/08/27 08:41:45;;;;;;;5.58;1.87;;;;;;;31.95;33.37;98717.66;1870642;76;22101;-68
2021/08/27 08:44:19;;;;;;;2.98;1.77;;;;;;;32.79;32.56;98726.70;1890061;76;22054;-70
2021/08/27 08:46:55;;;;;;;2.20;1.52;;;;;;;32.93;32.17;98725.55;1870662;76;22517;-73
2021/08/27 08:49:51;;;;;;;4.58;2.15;;;;;;;32.25;32.61;98715.63;1870528;76;22095;-70
2021/08/27 08:52:27;;;;;;;4.08;2.12;;;;;;;31.83;33.18;98718.16;1870576;76;22495;-65
2021/08/27 08:55:27;;;;;;;5.28;2.00;;;;;;;31.24;33.88;98720.54;1869757;76;22086;-66
2021/08/27 08:58:27;;;;;;;3.80;2.00;;;;;;;30.43;34.81;98712.08;1869769;76;22054;-63
2021/08/27 09:01:28;;;;;;;3.33;1.80;;;;;;;29.50;36.27;98712.56;1869726;76;22236;-76
2021/08/27 09:04:23;;;;;;;3.77;1.77;;;;;;;28.85;37.82;98724.59;1870610;76;22047;-69
2021/08/27 09:07:17;;;;;;;4.00;1.92;;;;;;;28.93;38.46;98723.62;1870643;76;22208;-66
2021/08/27 09:09:53;;;;;;;4.50;1.90;;;;;;;28.98;38.69;98725.48;1854762;76;27887;-59
2021/08/27 09:12:51;;;;;;;4.17;2.30;;;;;;;28.68;39.01;98722.62;1870660;76;22311;-67
2021/08/27 09:15:26;;;;;;;3.77;2.10;;;;;;;28.04;39.99;98717.56;1870825;76;22205;-63
2021/08/27 09:18:20;;;;;;;7.20;2.40;;;;;;;27.71;40.85;98716.08;1870618;76;22091;-68
2021/08/27 09:20:55;;;;;;;4.78;2.45;;;;;;;27.71;40.72;98716.92;1870699;76;22208;-66
2021/08/27 09:23:50;;;;;;;3.52;2.20;;;;;;;27.74;41.21;98705.27;1870651;76;22643;-70
2021/08/27 09:26:36;;;;;;;4.72;2.47;;;;;;;27.59;41.06;98717.69;1870723;76;22245;-69
2021/08/27 09:29:43;;;;;;;3.98;2.20;;;;;;;27.62;40.90;98719.30;1889864;76;22163;-68
2021/08/27 09:32:37;;;;;;;4.53;2.40;;;;;;;27.56;40.81;98718.38;1889878;76;22142;-76
2021/08/27 09:35:16;;;;;;;4.33;2.60;;;;;;;27.25;41.74;98711.84;1854803;76;27908;-66
2021/08/27 09:37:55;;;;;;;5.37;2.55;;;;;;;27.12;41.46;98711.31;1889945;76;22646;-70
2021/08/27 09:40:32;;;;;;;8.53;2.70;;;;;;;26.53;42.46;98713.94;1890168;76;20104;-68
2021/08/27 09:43:07;;;;;;;4.10;2.35;;;;;;;26.11;43.90;98718.10;1870781;76;22736;-64
2021/08/27 09:46:01;;;;;;;6.65;2.37;;;;;;;25.91;44.39;98717.89;1870628;76;22132;-76
2021/08/27 09:48:38;;;;;;;3.92;2.12;;;;;;;25.86;44.67;98719.94;1889954;76;22152;-67
2021/08/27 09:51:13;;;;;;;4.78;2.37;;;;;;;25.66;44.24;98725.81;1870662;76;22108;-75
2021/08/27 09:53:48;;;;;;;4.83;2.30;;;;;;;25.29;45.21;98721.64;1890070;76;22135;-70
2021/08/27 09:56:27;;;;;;;5.63;2.60;;;;;;;24.76;46.26;98726.13;1854789;76;27981;-67
2021/08/27 09:59:50;;;;;;;6.45;2.62;;;;;;;24.68;46.36;98726.52;1870522;76;22258;-68
2021/08/27 10:02:31;;;;;;;4.62;2.72;;;;;;;24.61;46.81;98724.27;1890051;76;22512;-72
2021/08/27 10:05:38;;;;;;;4.45;2.70;;;;;;;24.56;48.03;98715.73;1870469;76;22629;-69
2021/08/27 10:08:19;;;;;;;4.15;2.60;;;;;;;24.75;47.76;98720.45;1890499;76;22148;-63
2021/08/27 10:10:59;;;;;;;4.37;2.47;;;;;;;24.89;47.64;98721.92;1889918;76;22192;-69
2021/08/27 10:13:54;;;;;;;3.77;2.30;;;;;;;25.05;47.20;98723.77;1870494;76;22792;-66
2021/08/27 10:16:31;;;;;;;8.63;2.77;;;;;;;25.09;46.55;98722.69;1889935;76;22228;-61
2021/08/27 10:19:12;;;;;;;4.35;2.35;;;;;;;24.59;46.66;98723.48;1889924;76;22262;-74
2021/08/27 10:21:50;;;;;;;6.40;2.77;;;;;;;24.12;47.46;98718.28;1870879;76;22176;-74
2021/08/27 10:24:22;;;;;;;5.17;2.22;;;;;;;24.00;48.12;98718.39;1870576;76;22164;-68
2021/08/27 10:26:59;;;;;;;4.60;2.70;;;;;;;24.07;48.07;98715.45;1889840;76;22116;-75
2021/08/27 10:29:56;;;;;;;4.20;2.47;;;;;;;24.08;48.31;98711.91;1870509;76;22140;-69
2021/08/27 10:32:46;;;;;;;5.15;3.02;;;;;;;24.01;47.58;98704.74;1889870;76;22192;-74
2021/08/27 10:35:41;;;;;;;5.42;2.90;;;;;;;24.11;48.03;98696.78;1889946;76;22156;-64
2021/08/27 10:38:43;;;;;;;3.85;2.40;;;;;;;24.15;47.13;98701.45;1889937;76;22135;-69
2021/08/27 10:41:39;;;;;;;5.85;2.70;;;;;;;24.01;47.82;98701.64;1889903;76;22100;-67
2021/08/27 10:44:16;;;;;;;4.90;2.75;;;;;;;24.19;47.94;98694.61;1870646;76;22554;-72
2021/08/27 10:47:09;;;;;;;6.00;2.93;;;;;;;24.44;46.79;98696.90;1854831;76;27932;-71
2021/08/27 10:50:05;;;;;;;4.78;2.90;;;;;;;24.67;45.71;98697.56;1889875;76;22136;-65
2021/08/27 10:52:40;;;;;;;4.65;2.85;;;;;;;24.76;45.68;98694.94;1870733;76;22097;-67
2021/08/27 10:55:37;;;;;;;4.53;2.40;;;;;;;25.03;45.01;98687.34;1889909;76;22116;-65
2021/08/27 10:58:14;;;;;;;4.10;2.50;;;;;;;25.24;45.45;98678.78;1861871;76;22193;-78
2021/08/27 11:00:53;;;;;;;4.67;2.50;;;;;;;25.42;45.59;98678.28;1854756;76;27939;-70
2021/08/27 11:04:18;;;;;;;3.67;2.33;;;;;;;25.68;44.94;98679.48;1870642;76;22145;-64
2021/08/27 11:07:04;;;;;;;4.17;2.35;;;;;;;25.88;44.00;98682.37;1870651;76;22105;-61
2021/08/27 11:09:39;;;;;;;5.50;3.15;;;;;;;26.08;43.68;98674.17;1854817;76;27859;-70
2021/08/27 11:12:34;;;;;;;4.00;2.50;;;;;;;26.31;42.40;98679.45;1870610;76;22129;-67
2021/08/27 11:15:29;;;;;;;5.08;2.55;;;;;;;26.31;42.78;98675.96;1870457;76;22181;-67
2021/08/27 11:21:36;;;;;;;5.30;2.77;;;;;;;26.23;42.56;98675.08;1869625;76;22182;-64
2021/08/27 11:24:23;;;;;;;4.67;2.35;;;;;;;26.26;41.44;98680.67;1889992;76;22143;-70
2021/08/27 11:27:06;;;;;;;7.20;2.98;;;;;;;26.39;40.17;98684.30;1870431;76;22217;-69
2021/08/27 11:30:31;;;;;;;6.75;2.80;;;;;;;26.30;39.24;98682.17;1889919;76;22139;-64
2021/08/27 11:33:08;;;;;;;6.28;2.95;;;;;;;26.25;40.65;98689.52;1889951;76;22108;-68
2021/08/27 11:35:46;;;;;;;5.42;2.70;;;;;;;26.35;40.79;98686.73;1870514;76;22175;-65
2021/08/27 11:38:22;;;;;;;4.78;2.72;;;;;;;26.37;40.21;98687.50;1870517;76;22125;-68
2021/08/27 11:41:17;;;;;;;5.42;3.10;;;;;;;26.49;40.38;98689.44;1854760;76;28307;-62
2021/08/27 11:44:03;;;;;;;5.28;3.35;;;;;;;26.63;40.14;98692.13;1870586;76;22149;-64
2021/08/27 11:46:46;;;;;;;13.70;9.75;;;;;;;26.52;39.34;98695.89;1889867;76;22143;-70
2021/08/27 11:49:27;;;;;;;20.70;15.78;;;;;;;26.01;40.06;98690.00;1889834;76;22176;-64
2021/08/27 11:52:28;;;;;;;8.30;5.75;;;;;;;25.61;41.17;98701.42;1889853;76;22564;-65
2021/08/27 11:55:25;;;;;;;6.70;4.53;;;;;;;25.12;41.59;98691.68;1889868;76;22192;-68
2021/08/27 11:58:43;;;;;;;8.38;5.90;;;;;;;24.73;42.50;98682.75;1889846;76;22314;-68
2021/08/27 12:01:28;;;;;;;6.40;4.03;;;;;;;24.54;42.92;98684.61;1870668;76;22105;-66
2021/08/27 12:04:30;;;;;;;5.45;3.52;;;;;;;24.58;42.57;98688.34;1864309;76;22170;-59
2021/08/27 12:07:27;;;;;;;7.80;4.40;;;;;;;24.75;42.65;98691.41;1870075;76;22594;-64
2021/08/27 12:10:19;;;;;;;6.70;4.05;;;;;;;24.91;42.99;98691.03;1870416;76;22149;-67
2021/08/27 12:13:14;;;;;;;9.15;6.22;;;;;;;25.12;42.67;98697.44;1889811;76;22132;-66
2021/08/27 12:15:49;;;;;;;5.37;3.40;;;;;;;25.11;43.10;98699.67;1854756;76;28351;-64
2021/08/27 12:18:27;;;;;;;8.03;4.40;;;;;;;24.99;42.11;98699.87;1889703;76;22535;-61
2021/08/27 12:21:25;;;;;;;7.12;4.75;;;;;;;24.78;42.86;98695.69;1869610;76;22141;-68
2021/08/27 12:24:10;;;;;;;13.20;9.53;;;;;;;24.63;43.25;98692.06;1869697;76;22609;-64
2021/08/27 12:26:47;;;;;;;6.35;4.00;;;;;;;24.83;44.12;98687.94;1889802;76;22148;-65
2021/08/27 12:29:23;;;;;;;5.00;3.27;;;;;;;25.04;42.32;98685.96;1870357;76;22596;-65
2021/08/27 12:32:18;;;;;;;6.08;2.90;;;;;;;25.09;41.77;98687.05;1873375;75;22625;-70
2021/08/27 12:34:53;;;;;;;7.15;5.12;;;;;;;25.16;41.06;98688.43;1854514;76;28338;-65
2021/08/27 12:37:38;;;;;;;5.70;3.33;;;;;;;25.32;41.76;98689.34;1889717;76;22228;-69
2021/08/27 12:40:17;;;;;;;6.03;3.33;;;;;;;25.43;40.81;98686.11;1870425;76;22236;-65
2021/08/27 12:43:12;;;;;;;5.50;3.05;;;;;;;25.55;40.23;98679.31;1870151;76;22164;-67
2021/08/27 12:45:52;;;;;;;5.03;2.90;;;;;;;25.69;40.30;98678.54;1869589;76;22153;-68
2021/08/27 12:48:30;;;;;;;5.92;2.83;;;;;;;25.82;39.28;98682.67;1870463;76;22152;-63
2021/08/27 12:51:11;;;;;;;7.35;3.70;;;;;;;25.85;38.95;98693.10;1870376;76;22133;-68
2021/08/27 12:54:04;;;;;;;6.37;3.12;;;;;;;25.75;39.75;98686.99;1870553;76;22557;-63
2021/08/27 12:57:07;;;;;;;5.22;3.08;;;;;;;25.66;39.61;98688.81;1870289;76;22189;-69
2021/08/27 13:00:04;;;;;;;6.33;3.42;;;;;;;25.56;39.87;98690.25;1884837;76;22197;-62